createdAt,value
2018-04-28T00:01:36.679Z,5.23
2018-04-28T00:04:05.809Z,4.10
2018-04-28T00:06:34.205Z,6.33
2018-04-28T00:09:02.553Z,6.07
2018-04-28T00:11:30.932Z,6.57
2018-04-28T00:13:59.313Z,3.90
2018-04-28T00:16:29.353Z,7.07
2018-04-28T00:19:12.588Z,5.87
2018-04-28T00:21:48.635Z,4.40
2018-04-28T00:24:17.833Z,6.90
2018-04-28T00:26:46.206Z,5.17
2018-04-28T00:29:14.594Z,5.73
2018-04-28T00:32:00.542Z,4.70
2018-04-28T00:34:44.696Z,6.33
2018-04-28T00:37:16.701Z,7.53
2018-04-28T00:39:51.248Z,8.90
2018-04-28T00:42:32.332Z,8.40
2018-04-28T00:45:01.465Z,5.07
2018-04-28T00:47:30.180Z,4.93
2018-04-28T00:50:00.059Z,6.17
2018-04-28T00:52:29.312Z,4.47
2018-04-28T00:54:59.173Z,6.63
2018-04-28T00:57:35.234Z,6.80
2018-04-28T01:00:10.225Z,6.97
2018-04-28T01:02:39.765Z,6.90
2018-04-28T01:05:08.137Z,5.57
2018-04-28T01:07:36.549Z,5.87
2018-04-28T01:10:07.633Z,4.53
2018-04-28T01:12:57.526Z,7.10
2018-04-28T01:15:27.196Z,5.03
2018-04-28T01:18:01.328Z,5.80
2018-04-28T01:20:30.470Z,6.70
2018-04-28T01:23:00.532Z,6.73
2018-04-28T01:25:46.706Z,5.10
2018-04-28T01:28:24.963Z,7.50
2018-04-28T01:31:02.049Z,8.77
2018-04-28T01:33:48.972Z,8.37
2018-04-28T01:36:29.673Z,6.27
2018-04-28T01:38:58.946Z,6.00
2018-04-28T01:41:37.979Z,4.73
2018-04-28T01:44:12.081Z,6.07
2018-04-28T01:46:40.427Z,4.97
2018-04-28T01:49:11.661Z,6.70
2018-04-28T01:51:54.744Z,6.13
2018-04-28T01:54:38.697Z,7.97
2018-04-28T01:57:10.599Z,7.47
2018-04-28T02:02:38.798Z,7.67
2018-04-28T02:05:12.480Z,8.10
2018-04-28T02:07:45.766Z,8.53
2018-04-28T02:10:23.681Z,7.53
2018-04-28T02:13:13.701Z,6.67
2018-04-28T02:15:44.959Z,5.30
2018-04-28T02:18:19.185Z,4.73
2018-04-28T02:21:04.343Z,6.30
2018-04-28T02:23:46.560Z,14.60
2018-04-28T02:26:17.738Z,7.63
2018-04-28T02:31:57.098Z,6.90
2018-04-28T02:34:30.841Z,7.43
2018-04-28T02:37:10.937Z,9.83
2018-04-28T02:39:39.958Z,8.37
2018-04-28T02:42:11.954Z,7.03
2018-04-28T02:44:43.570Z,10.37
2018-04-28T02:47:22.946Z,8.83
2018-04-28T02:50:06.084Z,6.00
2018-04-28T02:52:47.309Z,7.60
2018-04-28T02:55:19.999Z,7.10
2018-04-28T02:57:52.408Z,4.73
2018-04-28T03:03:31.156Z,5.70
2018-04-28T03:06:00.320Z,6.70
2018-04-28T03:08:41.839Z,6.70
2018-04-28T03:11:15.058Z,5.43
2018-04-28T03:13:50.528Z,5.40
2018-04-28T03:16:36.657Z,6.13
2018-04-28T03:19:07.897Z,5.60
2018-04-28T03:21:40.285Z,6.13
2018-04-28T03:27:10.156Z,6.00
2018-04-28T03:29:45.214Z,5.07
2018-04-28T03:32:13.593Z,5.47
2018-04-28T03:34:42.961Z,6.43
2018-04-28T03:37:31.184Z,7.60
2018-04-28T03:40:02.321Z,6.57
2018-04-28T03:45:38.113Z,9.17
2018-04-28T03:48:26.211Z,7.23
2018-04-28T03:50:57.106Z,6.60
2018-04-28T03:53:32.695Z,6.63
2018-04-28T03:56:01.064Z,8.27
2018-04-28T03:58:41.485Z,6.23
2018-04-28T04:01:22.306Z,8.37
2018-04-28T04:04:11.290Z,6.93
2018-04-28T04:06:44.356Z,8.77
2018-04-28T04:09:15.401Z,8.70
2018-04-28T04:12:04.522Z,5.50
2018-04-28T04:17:57.967Z,5.30
2018-04-28T04:20:31.931Z,7.80
2018-04-28T04:26:07.304Z,5.97
2018-04-28T04:29:06.355Z,5.33
2018-04-28T04:34:51.501Z,5.00
2018-04-28T04:37:23.739Z,6.83
2018-04-28T04:40:24.489Z,6.83
2018-04-28T04:42:56.301Z,6.27
2018-04-28T04:45:41.446Z,6.27
2018-04-28T04:51:18.584Z,9.37
2018-04-28T04:53:48.517Z,7.37
2018-04-28T04:59:33.057Z,6.27
2018-04-28T05:02:21.968Z,7.77
2018-04-28T05:08:24.168Z,3.63
2018-04-28T05:10:55.264Z,7.57
2018-04-28T05:16:35.442Z,5.17
2018-04-28T05:22:38.959Z,6.63
2018-04-28T05:25:27.838Z,6.93
2018-04-28T05:28:05.976Z,5.07
2018-04-28T05:33:34.817Z,8.00
2018-04-28T05:36:23.881Z,5.07
2018-04-28T05:38:56.933Z,4.43
2018-04-28T05:44:36.893Z,7.70
2018-04-28T05:50:31.082Z,4.23
2018-04-28T05:53:09.244Z,7.03
2018-04-28T05:59:10.912Z,8.73
2018-04-28T06:04:45.696Z,5.80
2018-04-28T06:07:24.656Z,5.77
2018-04-28T06:10:01.501Z,4.90
2018-04-28T06:15:44.214Z,5.60
2018-04-28T06:18:24.967Z,8.50
2018-04-28T06:20:53.363Z,3.47
2018-04-28T06:23:21.705Z,7.87
2018-04-28T06:25:50.099Z,7.00
2018-04-28T06:28:19.222Z,4.83
2018-04-28T06:30:48.496Z,10.20
2018-04-28T06:33:16.868Z,4.90
2018-04-28T06:35:45.258Z,6.60
2018-04-28T06:38:14.414Z,7.60
2018-04-28T06:40:42.790Z,7.20
2018-04-28T06:43:11.185Z,6.67
2018-04-28T06:45:39.566Z,6.77
2018-04-28T06:48:07.968Z,6.83
2018-04-28T06:50:36.319Z,4.47
2018-04-28T06:53:04.672Z,7.20
2018-04-28T06:55:33.066Z,5.83
2018-04-28T06:58:01.482Z,8.73
2018-04-28T07:00:29.859Z,6.10
2018-04-28T07:02:58.408Z,5.47
2018-04-28T07:05:26.803Z,4.47
2018-04-28T07:07:55.190Z,5.77
2018-04-28T07:10:23.600Z,6.83
2018-04-28T07:12:51.990Z,5.93
2018-04-28T07:15:20.603Z,5.83
2018-04-28T07:17:49.017Z,6.10
2018-04-28T07:20:17.372Z,5.80
2018-04-28T07:22:45.774Z,4.07
2018-04-28T07:25:14.132Z,4.90
2018-04-28T07:27:42.516Z,4.83
2018-04-28T07:30:10.905Z,7.10
2018-04-28T07:32:39.316Z,5.77
2018-04-28T07:35:07.681Z,5.63
2018-04-28T07:37:36.836Z,5.87
2018-04-28T07:40:05.228Z,6.10
2018-04-28T07:42:33.578Z,7.13
2018-04-28T07:45:01.968Z,6.80
2018-04-28T07:47:32.694Z,5.07
2018-04-28T07:50:01.114Z,6.67
2018-04-28T07:52:33.246Z,6.17
2018-04-28T07:55:01.641Z,7.13
2018-04-28T07:57:29.974Z,11.57
2018-04-28T07:59:58.843Z,6.13
2018-04-28T08:02:27.218Z,5.30
2018-04-28T08:04:55.613Z,7.17
2018-04-28T08:07:24.044Z,6.20
2018-04-28T08:09:52.401Z,7.27
2018-04-28T08:12:20.839Z,6.37
2018-04-28T08:14:49.315Z,9.20
2018-04-28T08:17:17.747Z,8.97
2018-04-28T08:19:46.141Z,8.17
2018-04-28T08:22:15.407Z,5.60
2018-04-28T08:24:43.808Z,8.87
2018-04-28T08:27:12.180Z,4.97
2018-04-28T08:29:41.259Z,5.93
2018-04-28T08:32:10.062Z,10.57
2018-04-28T08:34:38.466Z,11.70
2018-04-28T08:37:07.672Z,4.47
2018-04-28T08:39:36.841Z,5.90
2018-04-28T08:42:05.206Z,6.17
2018-04-28T08:44:33.655Z,7.40
2018-04-28T08:47:02.451Z,7.10
2018-04-28T08:49:30.773Z,9.07
2018-04-28T08:51:59.206Z,7.67
2018-04-28T08:54:27.601Z,6.27
2018-04-28T08:56:55.967Z,6.33
2018-04-28T08:59:36.180Z,9.17
2018-04-28T09:02:05.301Z,7.47
2018-04-28T09:04:33.636Z,6.97
2018-04-28T09:09:55.166Z,10.13
2018-04-28T09:12:23.582Z,6.60
2018-04-28T09:14:52.381Z,6.33
2018-04-28T09:17:20.726Z,5.67
2018-04-28T09:19:51.588Z,6.60
2018-04-28T09:22:19.930Z,5.90
2018-04-28T09:24:48.262Z,4.17
2018-04-28T09:27:16.618Z,6.37
2018-04-28T09:29:44.957Z,5.23
2018-04-28T09:32:13.304Z,6.20
2018-04-28T09:34:41.671Z,8.13
2018-04-28T09:37:10.796Z,3.97
2018-04-28T09:39:39.132Z,6.97
2018-04-28T09:42:07.485Z,6.20
2018-04-28T09:44:36.617Z,7.37
2018-04-28T09:47:04.974Z,8.50
2018-04-28T09:49:33.324Z,7.67
2018-04-28T09:52:02.631Z,6.30
2018-04-28T09:54:31.726Z,6.87
2018-04-28T09:57:00.848Z,5.17
2018-04-28T09:59:29.188Z,9.30
2018-04-28T10:01:58.346Z,8.87
2018-04-28T10:04:27.119Z,9.20
2018-04-28T10:06:55.453Z,5.13
2018-04-28T10:09:24.558Z,6.80
2018-04-28T10:11:53.684Z,6.40
2018-04-28T10:14:22.007Z,7.00
2018-04-28T10:16:50.385Z,6.57
2018-04-28T10:19:18.735Z,6.43
2018-04-28T10:21:47.091Z,5.97
2018-04-28T10:24:15.461Z,6.20
2018-04-28T10:26:43.820Z,5.47
2018-04-28T10:29:12.196Z,5.17
2018-04-28T10:31:40.522Z,5.40
2018-04-28T10:34:08.867Z,6.53
2018-04-28T10:36:37.220Z,6.23
2018-04-28T10:39:06.351Z,6.03
2018-04-28T10:41:34.715Z,6.40
2018-04-28T10:44:03.053Z,9.40
2018-04-28T10:46:31.419Z,7.47
2018-04-28T10:48:59.770Z,7.43
2018-04-28T10:51:28.147Z,9.00
2018-04-28T10:53:56.559Z,7.73
2018-04-28T10:56:24.876Z,8.60
2018-04-28T10:58:53.253Z,6.17
2018-04-28T11:01:21.601Z,6.27
2018-04-28T11:03:50.757Z,9.83
2018-04-28T11:06:19.245Z,6.33
2018-04-28T11:08:47.569Z,4.23
2018-04-28T11:11:16.654Z,5.53
2018-04-28T11:13:45.769Z,7.40
2018-04-28T11:16:14.115Z,5.70
2018-04-28T11:18:42.487Z,4.53
2018-04-28T11:21:10.871Z,7.03
2018-04-28T11:23:39.253Z,5.37
2018-04-28T11:26:08.377Z,6.97
2018-04-28T11:28:36.737Z,4.00
2018-04-28T11:31:05.858Z,3.43
2018-04-28T11:33:34.187Z,5.00
2018-04-28T11:36:02.582Z,7.53
2018-04-28T11:38:31.787Z,4.73
2018-04-28T11:41:00.065Z,6.83
2018-04-28T11:43:29.202Z,3.63
2018-04-28T11:45:57.543Z,2.63
2018-04-28T11:48:26.029Z,6.00
2018-04-28T11:50:54.348Z,4.77
2018-04-28T11:53:22.745Z,5.97
2018-04-28T11:55:52.196Z,5.03
2018-04-28T11:58:20.529Z,4.00
2018-04-28T12:00:49.044Z,3.70
2018-04-28T12:03:17.366Z,3.23
2018-04-28T12:05:45.906Z,2.90
2018-04-28T12:08:14.560Z,4.10
2018-04-28T12:10:43.163Z,2.93
2018-04-28T12:13:11.637Z,4.73
2018-04-28T12:15:48.390Z,1.70
2018-04-28T12:18:18.576Z,3.40
2018-04-28T12:20:47.693Z,3.97
2018-04-28T12:23:16.847Z,3.63
2018-04-28T12:25:48.231Z,3.70
2018-04-28T12:28:16.653Z,1.70
2018-04-28T12:30:45.803Z,4.27
2018-04-28T12:33:14.201Z,3.77
2018-04-28T12:35:42.531Z,3.00
2018-04-28T12:38:11.423Z,4.70
2018-04-28T12:40:40.536Z,2.97
2018-04-28T12:43:08.910Z,3.00
2018-04-28T12:45:44.170Z,2.77
2018-04-28T12:48:16.589Z,2.33
2018-04-28T12:50:45.494Z,2.27
2018-04-28T12:53:13.830Z,3.17
2018-04-28T12:55:42.951Z,3.30
2018-04-28T12:58:12.298Z,3.20
2018-04-28T13:00:40.657Z,3.97
2018-04-28T13:03:09.026Z,7.97
2018-04-28T13:05:37.357Z,3.87
2018-04-28T13:08:05.818Z,8.90
2018-04-28T13:10:34.140Z,2.83
2018-04-28T13:13:02.486Z,4.27
2018-04-28T13:15:30.856Z,5.17
2018-04-28T13:17:59.188Z,3.30
2018-04-28T13:20:27.540Z,6.30
2018-04-28T13:22:56.647Z,4.10
2018-04-28T13:25:25.130Z,4.47
2018-04-28T13:27:53.465Z,5.90
2018-04-28T13:30:21.810Z,6.50
2018-04-28T13:32:50.197Z,4.63
2018-04-28T13:35:18.538Z,5.97
2018-04-28T13:37:48.239Z,4.60
2018-04-28T13:40:16.762Z,3.53
2018-04-28T13:42:45.103Z,4.00
2018-04-28T13:45:13.938Z,4.23
2018-04-28T13:47:42.561Z,4.17
2018-04-28T13:50:11.717Z,4.97
2018-04-28T13:52:41.055Z,6.40
2018-04-28T13:55:09.544Z,7.77
2018-04-28T13:57:38.506Z,2.23
2018-04-28T14:00:06.996Z,7.70
2018-04-28T14:02:35.421Z,5.10
2018-04-28T14:05:04.165Z,6.20
2018-04-28T14:07:34.183Z,9.73
2018-04-28T14:10:02.605Z,5.77
2018-04-28T14:12:31.796Z,6.23
2018-04-28T14:15:00.238Z,4.17
2018-04-28T14:17:29.357Z,6.73
2018-04-28T14:19:57.705Z,4.10
2018-04-28T14:22:26.046Z,6.57
2018-04-28T14:24:54.382Z,5.13
2018-04-28T14:27:23.575Z,4.20
2018-04-28T14:29:52.673Z,2.53
2018-04-28T14:32:21.769Z,4.33
2018-04-28T14:34:50.157Z,4.47
2018-04-28T14:37:18.492Z,3.50
2018-04-28T14:39:46.846Z,6.37
2018-04-28T14:42:15.313Z,6.70
2018-04-28T14:44:43.646Z,5.17
2018-04-28T14:47:12.746Z,3.43
2018-04-28T14:49:41.851Z,7.40
2018-04-28T14:52:10.193Z,2.90
2018-04-28T14:54:38.548Z,4.17
2018-04-28T14:57:06.905Z,4.33
2018-04-28T14:59:35.285Z,3.00
2018-04-28T15:02:03.627Z,5.07
2018-04-28T15:04:32.731Z,5.27
2018-04-28T15:07:01.084Z,4.20
2018-04-28T15:09:30.267Z,3.50
2018-04-28T15:11:58.616Z,2.80
2018-04-28T15:14:26.953Z,8.33
2018-04-28T15:16:56.093Z,2.63
2018-04-28T15:19:24.467Z,4.13
2018-04-28T15:21:52.801Z,5.43
2018-04-28T15:24:22.042Z,3.33
2018-04-28T15:26:50.372Z,2.50
2018-04-28T15:29:19.466Z,5.53
2018-04-28T15:31:48.574Z,5.97
2018-04-28T15:34:16.928Z,3.90
2018-04-28T15:36:45.294Z,6.53
2018-04-28T15:39:13.643Z,8.23
2018-04-28T15:41:42.004Z,3.93
2018-04-28T15:44:10.353Z,4.73
2018-04-28T15:46:39.466Z,5.47
2018-04-28T15:49:07.911Z,9.13
2018-04-28T15:51:36.472Z,3.77
2018-04-28T15:54:05.258Z,3.33
2018-04-28T15:56:33.590Z,3.57
2018-04-28T15:59:01.927Z,4.83
2018-04-28T16:01:30.275Z,4.13
2018-04-28T16:03:58.636Z,3.27
2018-04-28T16:06:27.917Z,5.53
2018-04-28T16:08:56.248Z,5.13
2018-04-28T16:11:24.589Z,6.17
2018-04-28T16:13:52.935Z,6.73
2018-04-28T16:16:23.886Z,3.97
2018-04-28T16:18:52.258Z,4.03
2018-04-28T16:21:20.768Z,5.60
2018-04-28T16:23:49.884Z,4.83
2018-04-28T16:26:18.210Z,6.73
2018-04-28T16:28:47.430Z,5.10
2018-04-28T16:31:17.135Z,5.93
2018-04-28T16:33:46.308Z,6.47
2018-04-28T16:36:14.743Z,5.60
2018-04-28T16:38:43.100Z,5.07
2018-04-28T16:41:11.433Z,6.90
2018-04-28T16:43:40.589Z,7.57
2018-04-28T16:46:08.960Z,5.47
2018-04-28T16:48:39.125Z,7.07
2018-04-28T16:51:08.290Z,7.70
2018-04-28T16:53:36.690Z,7.53
2018-04-28T16:56:05.007Z,5.87
2018-04-28T16:58:33.341Z,6.43
2018-04-28T17:01:01.818Z,3.90
2018-04-28T17:03:30.152Z,5.67
2018-04-28T17:05:58.475Z,7.07
2018-04-28T17:08:26.818Z,8.07
2018-04-28T17:10:55.151Z,4.40
2018-04-28T17:13:24.273Z,6.93
2018-04-28T17:15:52.606Z,3.93
2018-04-28T17:18:20.966Z,6.27
2018-04-28T17:20:49.292Z,6.43
2018-04-28T17:23:17.649Z,6.93
2018-04-28T17:25:46.750Z,7.57
2018-04-28T17:28:15.849Z,6.37
2018-04-28T17:30:44.223Z,5.43
2018-04-28T17:33:13.033Z,4.47
2018-04-28T17:35:41.366Z,8.37
2018-04-28T17:38:09.727Z,10.00
2018-04-28T17:40:38.071Z,5.90
2018-04-28T17:43:06.412Z,4.77
2018-04-28T17:45:35.598Z,4.37
2018-04-28T17:48:03.933Z,6.40
2018-04-28T17:50:32.289Z,7.73
2018-04-28T17:53:00.640Z,7.67
2018-04-28T17:55:29.742Z,5.20
2018-04-28T17:57:58.965Z,6.83
2018-04-28T18:00:27.319Z,4.57
2018-04-28T18:02:57.681Z,7.77
2018-04-28T18:05:26.042Z,5.23
2018-04-28T18:07:54.390Z,7.10
2018-04-28T18:10:23.513Z,5.27
2018-04-28T18:12:51.873Z,6.63
2018-04-28T18:15:21.025Z,6.13
2018-04-28T18:17:49.389Z,8.77
2018-04-28T18:20:17.864Z,6.17
2018-04-28T18:22:46.197Z,7.97
2018-04-28T18:25:15.281Z,5.33
2018-04-28T18:27:44.412Z,4.87
2018-04-28T18:30:12.749Z,4.27
2018-04-28T18:32:41.093Z,6.60
2018-04-28T18:35:09.412Z,7.50
2018-04-28T18:37:40.330Z,6.63
2018-04-28T18:40:09.329Z,4.07
2018-04-28T18:42:37.802Z,4.47
2018-04-28T18:45:06.186Z,7.40
2018-04-28T18:47:34.659Z,5.43
2018-04-28T18:50:02.989Z,5.20
2018-04-28T18:52:32.082Z,6.03
2018-04-28T18:55:00.555Z,5.77
2018-04-28T18:57:28.896Z,7.07
2018-04-28T18:59:57.228Z,8.47
2018-04-28T19:02:25.581Z,4.93
2018-04-28T19:04:53.958Z,6.37
2018-04-28T19:07:22.292Z,5.40
2018-04-28T19:09:50.653Z,4.97
2018-04-28T19:12:19.005Z,6.80
2018-04-28T19:14:48.108Z,9.07
2018-04-28T19:17:16.589Z,3.97
2018-04-28T19:19:44.916Z,6.30
2018-04-28T19:22:13.309Z,7.17
2018-04-28T19:24:42.468Z,5.87
2018-04-28T19:27:10.801Z,6.07
2018-04-28T19:29:39.120Z,8.47
2018-04-28T19:32:07.509Z,6.57
2018-04-28T19:34:36.634Z,7.40
2018-04-28T19:37:05.721Z,7.90
2018-04-28T19:39:36.792Z,6.17
2018-04-28T19:42:05.130Z,5.00
2018-04-28T19:44:33.516Z,7.23
2018-04-28T19:47:02.673Z,7.70
2018-04-28T19:49:30.988Z,7.43
2018-04-28T19:52:00.079Z,6.90
2018-04-28T19:54:29.303Z,6.97
2018-04-28T19:56:57.640Z,7.43
2018-04-28T19:59:27.014Z,7.87
2018-04-28T20:01:55.387Z,7.83
2018-04-28T20:04:23.782Z,7.90
2018-04-28T20:06:52.222Z,7.60
2018-04-28T20:09:20.958Z,7.43
2018-04-28T20:11:49.400Z,8.67
2018-04-28T20:14:17.728Z,8.90
2018-04-28T20:16:46.070Z,7.27
2018-04-28T20:19:14.424Z,9.47
2018-04-28T20:21:42.788Z,7.40
2018-04-28T20:24:23.127Z,9.83
2018-04-28T20:26:52.220Z,10.40
2018-04-28T20:29:21.345Z,10.03
2018-04-28T20:31:49.696Z,9.47
2018-04-28T20:34:18.825Z,9.83
2018-04-28T20:36:47.173Z,9.27
2018-04-28T20:39:16.292Z,11.33
2018-04-28T20:41:44.649Z,12.97
2018-04-28T20:44:13.773Z,11.07
2018-04-28T20:46:42.124Z,12.03
2018-04-28T20:49:10.520Z,9.37
2018-04-28T20:51:38.874Z,11.13
2018-04-28T20:54:08.008Z,11.53
2018-04-28T20:56:37.116Z,10.80
2018-04-28T20:59:06.236Z,9.70
2018-04-28T21:01:34.936Z,10.53
2018-04-28T21:04:04.058Z,9.43
2018-04-28T21:06:32.456Z,11.27
2018-04-28T21:09:00.909Z,14.10
2018-04-28T21:11:29.439Z,14.90
2018-04-28T21:13:57.805Z,10.93
2018-04-28T21:16:26.219Z,11.80
2018-04-28T21:18:54.863Z,12.00
2018-04-28T21:21:23.207Z,9.43
2018-04-28T21:23:51.550Z,10.50
2018-04-28T21:26:19.932Z,11.70
2018-04-28T21:28:48.269Z,8.43
2018-04-28T21:31:16.907Z,10.27
2018-04-28T21:33:46.021Z,8.30
2018-04-28T21:36:14.362Z,12.80
2018-04-28T21:38:42.847Z,9.27
2018-04-28T21:41:11.185Z,10.80
2018-04-28T21:43:39.622Z,11.17
2018-04-28T21:46:08.747Z,9.53
2018-04-28T21:48:37.892Z,11.30
2018-04-28T21:51:06.227Z,9.10
2018-04-28T21:53:35.338Z,13.83
2018-04-28T21:56:03.722Z,10.87
2018-04-28T21:58:32.052Z,9.27
2018-04-28T22:01:00.395Z,10.87
2018-04-28T22:03:28.738Z,9.67
2018-04-28T22:05:57.881Z,11.03
2018-04-28T22:08:26.990Z,9.37
2018-04-28T22:10:56.160Z,10.53
2018-04-28T22:13:24.505Z,9.90
2018-04-28T22:15:52.822Z,10.17
2018-04-28T22:18:21.631Z,10.47
2018-04-28T22:20:50.927Z,11.83
2018-04-28T22:23:20.015Z,10.23
2018-04-28T22:25:49.640Z,8.80
2018-04-28T22:28:17.993Z,9.17
2018-04-28T22:30:47.108Z,11.30
2018-04-28T22:33:15.477Z,8.23
2018-04-28T22:35:44.623Z,8.93
2018-04-28T22:38:12.959Z,9.40
2018-04-28T22:40:41.321Z,11.00
2018-04-28T22:43:10.429Z,11.57
2018-04-28T22:45:38.805Z,8.83
2018-04-28T22:48:07.174Z,9.30
2018-04-28T22:50:35.581Z,9.73
2018-04-28T22:53:03.914Z,9.43
2018-04-28T22:55:32.259Z,8.87
2018-04-28T22:58:00.630Z,9.77
2018-04-28T23:00:29.000Z,8.17
2018-04-28T23:02:57.459Z,11.13
2018-04-28T23:05:25.782Z,8.70
2018-04-28T23:07:54.197Z,8.83
2018-04-28T23:10:23.317Z,8.57
2018-04-28T23:12:52.490Z,9.50
2018-04-28T23:15:21.578Z,10.43
2018-04-28T23:17:50.691Z,10.83
2018-04-28T23:20:19.080Z,8.97
2018-04-28T23:22:47.405Z,10.50
2018-04-28T23:25:15.719Z,13.80
2018-04-28T23:27:44.100Z,8.77
2018-04-28T23:30:12.433Z,8.20
2018-04-28T23:32:40.770Z,9.40
2018-04-28T23:35:09.148Z,9.70
2018-04-28T23:37:37.463Z,10.43
2018-04-28T23:40:05.794Z,8.27
2018-04-28T23:42:34.150Z,9.47
2018-04-28T23:45:03.276Z,11.17
2018-04-28T23:47:31.613Z,9.97
2018-04-28T23:50:00.007Z,11.60
2018-04-28T23:52:29.169Z,12.90
2018-04-28T23:54:57.526Z,11.13
2018-04-28T23:57:25.873Z,14.43
2018-04-28T23:59:54.252Z,12.73
